createdAt,value
2022-08-04T00:01:47.113Z,68.85
2022-08-04T00:04:41.715Z,68.99
2022-08-04T00:07:19.350Z,68.86
2022-08-04T00:10:10.143Z,68.88
2022-08-04T00:12:45.382Z,68.92
2022-08-04T00:15:18.350Z,68.69
2022-08-04T00:17:54.023Z,68.67
2022-08-04T00:20:30.469Z,69.05
2022-08-04T00:23:01.324Z,69.06
2022-08-04T00:25:31.310Z,69.27
2022-08-04T00:28:02.910Z,69.59
2022-08-04T00:30:32.835Z,69.71
2022-08-04T00:33:03.914Z,69.85
2022-08-04T00:35:35.162Z,70.04
2022-08-04T00:38:05.167Z,69.81
2022-08-04T00:40:50.245Z,69.37
2022-08-04T00:43:31.784Z,69.77
2022-08-04T00:46:40.026Z,69.81
2022-08-04T00:49:50.787Z,69.34
2022-08-04T00:52:45.724Z,69.24
2022-08-04T00:55:57.768Z,69.36
2022-08-04T00:58:53.447Z,69.28
2022-08-04T01:01:45.792Z,69.22
2022-08-04T01:04:25.786Z,69.31
2022-08-04T01:07:16.429Z,68.90
2022-08-04T01:10:05.476Z,69.16
2022-08-04T01:13:09.990Z,68.89
2022-08-04T01:16:00.524Z,69.04
2022-08-04T01:18:54.420Z,69.19
2022-08-04T01:22:01.150Z,68.80
2022-08-04T01:25:02.299Z,68.90
2022-08-04T01:27:57.377Z,69.27
2022-08-04T01:30:29.369Z,69.15
2022-08-04T01:33:05.045Z,69.24
2022-08-04T01:35:48.959Z,69.82
2022-08-04T01:38:26.036Z,69.75
2022-08-04T01:41:00.709Z,69.65
2022-08-04T01:43:33.756Z,69.57
2022-08-04T01:46:06.908Z,69.08
2022-08-04T01:48:39.873Z,69.57
2022-08-04T01:51:10.002Z,69.76
2022-08-04T01:53:41.506Z,69.35
2022-08-04T01:56:12.661Z,69.54
2022-08-04T01:58:42.854Z,69.61
2022-08-04T02:01:15.396Z,69.49
2022-08-04T02:04:21.553Z,69.44
2022-08-04T02:06:50.633Z,69.41
2022-08-04T02:09:27.841Z,69.35
2022-08-04T02:12:15.949Z,69.38
2022-08-04T02:14:57.314Z,69.07
2022-08-04T02:17:35.184Z,68.96
2022-08-04T02:20:10.515Z,69.33
2022-08-04T02:22:54.508Z,69.78
2022-08-04T02:25:28.031Z,69.51
2022-08-04T02:28:23.491Z,69.57
2022-08-04T02:31:09.695Z,69.80
2022-08-04T02:33:43.743Z,69.37
2022-08-04T02:36:22.843Z,69.81
2022-08-04T02:39:01.664Z,70.07
2022-08-04T02:41:32.895Z,70.12
2022-08-04T02:44:05.891Z,70.18
2022-08-04T02:46:38.105Z,70.63
2022-08-04T02:49:10.692Z,70.37
2022-08-04T02:51:42.427Z,70.53
2022-08-04T02:54:12.043Z,70.37
2022-08-04T02:56:42.124Z,70.58
2022-08-04T02:59:14.198Z,70.56
2022-08-04T03:01:57.879Z,70.83
2022-08-04T03:04:52.468Z,71.49
2022-08-04T03:08:21.405Z,71.38
2022-08-04T03:11:49.601Z,72.39
2022-08-04T03:15:12.314Z,71.93
2022-08-04T03:18:29.327Z,72.15
2022-08-04T03:22:18.706Z,72.34
2022-08-04T03:25:57.335Z,72.23
2022-08-04T03:29:35.241Z,72.39
2022-08-04T03:33:01.491Z,72.69
2022-08-04T03:35:58.609Z,72.19
2022-08-04T03:39:10.300Z,72.22
2022-08-04T03:42:14.242Z,72.51
2022-08-04T03:45:39.776Z,72.99
2022-08-04T03:48:50.240Z,72.93
2022-08-04T03:51:55.494Z,72.48
2022-08-04T03:55:16.039Z,72.88
2022-08-04T03:58:18.733Z,72.36
2022-08-04T04:00:59.206Z,72.74
2022-08-04T04:04:04.781Z,72.84
2022-08-04T04:07:09.604Z,72.81
2022-08-04T04:10:29.019Z,72.90
2022-08-04T04:13:51.840Z,72.99
2022-08-04T04:16:45.943Z,73.52
2022-08-04T04:20:10.175Z,73.80
2022-08-04T04:23:01.832Z,73.65
2022-08-04T04:25:43.696Z,74.32
2022-08-04T04:28:51.438Z,74.45
2022-08-04T04:31:58.851Z,74.35
2022-08-04T04:34:46.093Z,73.93
2022-08-04T04:37:31.233Z,74.02
2022-08-04T04:40:21.055Z,73.83
2022-08-04T04:43:12.857Z,74.42
2022-08-04T04:45:55.318Z,74.74
2022-08-04T04:48:38.696Z,74.77
2022-08-04T04:51:24.613Z,74.52
2022-08-04T04:54:06.294Z,74.81
2022-08-04T04:56:45.150Z,74.54
2022-08-04T04:59:20.239Z,74.32
2022-08-04T05:02:33.898Z,74.47
2022-08-04T05:06:00.466Z,74.87
2022-08-04T05:08:54.964Z,74.58
2022-08-04T05:11:57.121Z,74.66
2022-08-04T05:14:40.944Z,76.00
2022-08-04T05:17:23.389Z,75.25
2022-08-04T05:20:02.010Z,75.25
2022-08-04T05:22:38.895Z,75.81
2022-08-04T05:25:22.516Z,75.59
2022-08-04T05:27:58.837Z,76.11
2022-08-04T05:30:30.153Z,76.25
2022-08-04T05:33:05.643Z,75.97
2022-08-04T05:36:17.950Z,76.13
2022-08-04T05:38:39.822Z,76.12
2022-08-04T05:41:11.677Z,76.04
2022-08-04T05:43:45.074Z,76.42
2022-08-04T05:46:17.296Z,76.29
2022-08-04T05:48:49.914Z,76.15
2022-08-04T05:51:20.455Z,76.39
2022-08-04T05:53:51.185Z,76.30
2022-08-04T05:56:20.785Z,76.48
2022-08-04T05:58:51.019Z,76.04
2022-08-04T06:01:25.612Z,76.57
2022-08-04T06:03:58.226Z,76.14
2022-08-04T06:06:28.127Z,76.05
2022-08-04T06:08:58.889Z,76.32
2022-08-04T06:11:30.415Z,76.00
2022-08-04T06:14:06.527Z,76.43
2022-08-04T06:16:42.524Z,75.99
2022-08-04T06:20:03.799Z,75.85
2022-08-04T06:22:07.948Z,76.12
2022-08-04T06:24:39.965Z,76.10
2022-08-04T06:27:10.341Z,76.47
2022-08-04T06:29:51.349Z,76.53
2022-08-04T06:32:41.267Z,75.90
2022-08-04T06:35:13.059Z,75.90
2022-08-04T06:37:44.354Z,75.55
2022-08-04T06:40:31.481Z,75.45
2022-08-04T06:43:07.694Z,75.13
2022-08-04T06:45:53.048Z,75.48
2022-08-04T06:48:33.270Z,74.78
2022-08-04T06:51:27.573Z,74.82
2022-08-04T06:53:54.792Z,74.66
2022-08-04T06:56:25.275Z,74.64
2022-08-04T06:58:56.471Z,74.67
2022-08-04T07:01:28.140Z,74.56
2022-08-04T07:03:57.673Z,74.07
2022-08-04T07:06:28.512Z,73.96
2022-08-04T07:08:58.009Z,73.27
2022-08-04T07:11:28.659Z,72.86
2022-08-04T07:14:08.764Z,72.38
2022-08-04T07:16:38.289Z,72.41
2022-08-04T07:19:10.561Z,71.66
2022-08-04T07:22:17.726Z,71.96
2022-08-04T07:24:32.697Z,71.47
2022-08-04T07:27:02.668Z,71.35
2022-08-04T07:29:32.705Z,70.40
2022-08-04T07:32:02.892Z,70.68
2022-08-04T07:34:32.951Z,70.78
2022-08-04T07:37:05.965Z,69.92
2022-08-04T07:39:48.185Z,68.01
2022-08-04T07:42:21.471Z,65.96
2022-08-04T07:44:50.693Z,66.79
2022-08-04T07:47:25.314Z,64.79
2022-08-04T07:49:57.603Z,65.37
2022-08-04T07:52:30.288Z,66.79
2022-08-04T07:55:00.378Z,65.68
2022-08-04T07:57:41.530Z,59.58
2022-08-04T08:00:15.010Z,58.68
2022-08-04T08:02:46.957Z,60.40
2022-08-04T08:05:19.394Z,55.66
2022-08-04T08:07:54.299Z,55.92
2022-08-04T08:10:25.044Z,57.28
2022-08-04T08:12:55.372Z,55.29
2022-08-04T08:15:25.443Z,52.42
2022-08-04T08:17:57.989Z,52.94
2022-08-04T08:20:30.707Z,51.23
2022-08-04T08:23:03.753Z,50.29
2022-08-04T08:25:34.687Z,51.27
2022-08-04T08:28:06.131Z,50.50
2022-08-04T08:30:36.429Z,49.91
2022-08-04T08:33:09.193Z,49.00
2022-08-04T08:35:54.830Z,49.50
2022-08-04T08:38:40.313Z,48.78
2022-08-04T08:41:54.343Z,48.91
2022-08-04T08:45:12.371Z,47.71
2022-08-04T08:48:17.760Z,47.41
2022-08-04T08:51:52.127Z,48.36
2022-08-04T08:54:55.953Z,48.20
2022-08-04T08:58:00.039Z,48.64
2022-08-04T09:00:43.217Z,48.31
2022-08-04T09:03:47.339Z,47.53
2022-08-04T09:06:47.966Z,46.87
2022-08-04T09:09:42.163Z,47.05
2022-08-04T09:12:25.764Z,47.25
2022-08-04T09:15:04.565Z,46.40
2022-08-04T09:17:43.189Z,46.63
2022-08-04T09:20:23.026Z,46.71
2022-08-04T09:23:01.792Z,46.50
2022-08-04T09:25:40.170Z,44.99
2022-08-04T09:28:51.725Z,44.98
2022-08-04T09:31:21.079Z,44.29
2022-08-04T09:34:00.387Z,43.65
2022-08-04T09:36:40.780Z,43.17
2022-08-04T09:39:23.951Z,42.57
2022-08-04T09:42:05.561Z,42.04
2022-08-04T09:44:57.504Z,42.08
2022-08-04T09:47:40.758Z,41.19
2022-08-04T09:50:26.711Z,40.52
2022-08-04T09:53:08.096Z,40.83
2022-08-04T09:55:53.258Z,41.37
2022-08-04T09:58:42.072Z,40.98
2022-08-04T10:01:23.161Z,39.06
2022-08-04T10:03:57.729Z,38.49
2022-08-04T10:07:03.992Z,38.45
2022-08-04T10:09:49.233Z,36.68
2022-08-04T10:12:59.292Z,37.31
2022-08-04T10:15:36.329Z,35.83
2022-08-04T10:18:28.909Z,35.49
2022-08-04T10:21:11.710Z,36.36
2022-08-04T10:24:08.826Z,36.45
2022-08-04T10:26:53.220Z,36.00
2022-08-04T10:29:32.179Z,36.55
2022-08-04T10:32:13.403Z,35.77
2022-08-04T10:35:01.170Z,36.33
2022-08-04T10:37:53.275Z,37.41
2022-08-04T10:40:43.432Z,37.48
2022-08-04T10:43:26.987Z,37.08
2022-08-04T10:46:03.229Z,36.06
2022-08-04T10:48:45.835Z,35.77
2022-08-04T10:51:27.067Z,35.52
2022-08-04T10:54:03.720Z,36.28
2022-08-04T10:56:41.938Z,35.93
2022-08-04T10:59:21.556Z,37.63
2022-08-04T11:02:01.438Z,37.92
2022-08-04T11:04:39.345Z,36.85
2022-08-04T11:07:11.770Z,36.20
2022-08-04T11:09:44.247Z,34.83
2022-08-04T11:12:20.888Z,34.33
2022-08-04T11:14:57.297Z,34.24
2022-08-04T11:17:33.673Z,34.89
2022-08-04T11:20:35.362Z,34.19
2022-08-04T11:23:13.615Z,34.72
2022-08-04T11:25:54.189Z,33.87
2022-08-04T11:28:35.152Z,33.84
2022-08-04T11:31:09.243Z,35.68
2022-08-04T11:33:51.286Z,34.75
2022-08-04T11:36:32.182Z,33.46
2022-08-04T11:39:14.193Z,32.27
2022-08-04T11:41:52.791Z,31.70
2022-08-04T11:44:31.542Z,31.42
2022-08-04T11:47:06.335Z,30.22
2022-08-04T11:49:56.837Z,30.89
2022-08-04T11:52:30.048Z,30.07
2022-08-04T11:55:05.121Z,30.04
2022-08-04T11:57:36.718Z,30.86
2022-08-04T12:00:13.857Z,30.73
2022-08-04T12:03:28.450Z,30.57
2022-08-04T12:06:16.752Z,31.82
2022-08-04T12:09:04.077Z,33.22
2022-08-04T12:11:52.849Z,33.95
2022-08-04T12:14:35.498Z,36.11
2022-08-04T12:17:07.207Z,36.99
2022-08-04T12:20:03.406Z,38.27
2022-08-04T12:22:40.988Z,38.59
2022-08-04T12:25:15.324Z,38.25
2022-08-04T12:27:52.778Z,37.99
2022-08-04T12:30:59.688Z,37.39
2022-08-04T12:33:22.575Z,36.71
2022-08-04T12:36:11.293Z,36.45
2022-08-04T12:38:49.644Z,36.08
2022-08-04T12:41:25.935Z,36.05
2022-08-04T12:43:56.764Z,36.56
2022-08-04T12:46:30.151Z,37.23
2022-08-04T12:49:06.067Z,34.95
2022-08-04T12:52:07.400Z,33.46
2022-08-04T12:54:37.353Z,30.35
2022-08-04T12:57:09.246Z,29.89
2022-08-04T12:59:44.970Z,29.91
2022-08-04T13:02:25.203Z,29.58
2022-08-04T13:04:56.563Z,29.94
2022-08-04T13:07:44.028Z,29.60
2022-08-04T13:10:14.914Z,30.57
2022-08-04T13:12:59.500Z,32.54
2022-08-04T13:18:27.357Z,31.64
2022-08-04T13:21:19.645Z,32.61
2022-08-04T13:24:19.814Z,33.71
2022-08-04T13:26:56.976Z,33.77
2022-08-04T13:29:59.932Z,33.70
2022-08-04T13:30:24.010Z,33.02
2022-08-04T13:32:32.910Z,33.61
2022-08-04T13:35:04.770Z,33.23
2022-08-04T13:37:37.126Z,33.30
2022-08-04T13:40:10.773Z,31.63
2022-08-04T13:42:42.093Z,31.32
2022-08-04T13:45:13.178Z,32.23
2022-08-04T13:47:45.124Z,32.77
2022-08-04T13:50:23.589Z,33.19
2022-08-04T13:52:56.349Z,33.52
2022-08-04T13:55:30.926Z,32.86
2022-08-04T13:58:10.985Z,33.12
2022-08-04T14:00:49.235Z,32.46
2022-08-04T14:03:31.754Z,32.65
2022-08-04T14:06:16.605Z,32.53
2022-08-04T14:08:51.358Z,31.45
2022-08-04T14:12:09.482Z,30.19
2022-08-04T14:14:23.177Z,29.65
2022-08-04T14:17:02.413Z,30.31
2022-08-04T14:19:53.541Z,31.30
2022-08-04T14:22:38.809Z,31.85
2022-08-04T14:25:16.072Z,29.98
2022-08-04T14:27:49.421Z,28.05
2022-08-04T14:30:31.317Z,28.55
2022-08-04T14:34:01.758Z,29.23
2022-08-04T14:36:04.713Z,28.39
2022-08-04T14:38:53.706Z,28.30
2022-08-04T14:41:27.028Z,28.28
2022-08-04T14:43:59.794Z,29.00
2022-08-04T14:46:35.145Z,28.75
2022-08-04T14:49:13.030Z,28.18
2022-08-04T14:51:46.310Z,27.98
2022-08-04T14:54:18.818Z,28.79
2022-08-04T14:56:58.008Z,30.31
2022-08-04T14:59:27.606Z,30.87
2022-08-04T15:02:00.351Z,31.07
2022-08-04T15:04:32.522Z,32.15
2022-08-04T15:07:04.496Z,32.44
2022-08-04T15:09:34.393Z,33.41
2022-08-04T15:12:05.573Z,34.04
2022-08-04T15:14:38.238Z,34.72
2022-08-04T15:17:29.018Z,35.59
2022-08-04T15:19:58.824Z,35.90
2022-08-04T15:22:29.849Z,35.96
2022-08-04T15:24:59.297Z,35.77
2022-08-04T15:27:35.186Z,35.91
2022-08-04T15:30:07.821Z,34.78
2022-08-04T15:32:40.373Z,34.27
2022-08-04T15:35:14.602Z,32.47
2022-08-04T15:38:00.641Z,31.01
2022-08-04T15:40:40.131Z,30.83
2022-08-04T15:43:25.303Z,30.39
2022-08-04T15:46:40.965Z,29.58
2022-08-04T15:48:47.802Z,28.95
2022-08-04T15:51:32.067Z,28.18
2022-08-04T15:54:30.683Z,26.21
2022-08-04T15:57:03.701Z,27.16
2022-08-04T16:00:02.797Z,28.02
2022-08-04T16:02:47.741Z,28.37
2022-08-04T16:05:39.402Z,28.62
2022-08-04T16:08:20.104Z,28.63
2022-08-04T16:10:51.860Z,28.34
2022-08-04T16:13:23.802Z,28.93
2022-08-04T16:16:03.324Z,29.49
2022-08-04T16:18:44.068Z,29.73
2022-08-04T16:21:24.638Z,31.59
2022-08-04T16:24:21.744Z,33.87
2022-08-04T16:27:03.243Z,35.24
2022-08-04T16:29:39.864Z,36.34
2022-08-04T16:32:22.196Z,36.14
2022-08-04T16:34:59.998Z,36.49
2022-08-04T16:37:38.908Z,35.78
2022-08-04T16:40:37.522Z,35.85
2022-08-04T16:43:11.687Z,35.92
2022-08-04T16:45:54.090Z,36.38
2022-08-04T16:48:28.064Z,36.29
2022-08-04T16:51:05.599Z,36.04
2022-08-04T16:53:53.539Z,36.17
2022-08-04T16:56:39.230Z,36.68
2022-08-04T16:59:14.251Z,36.18
2022-08-04T17:01:53.428Z,36.18
2022-08-04T17:04:32.245Z,36.34
2022-08-04T17:07:07.043Z,36.19
2022-08-04T17:09:43.501Z,35.72
2022-08-04T17:12:12.918Z,35.55
2022-08-04T17:14:48.172Z,35.54
2022-08-04T17:18:04.044Z,35.11
2022-08-04T17:20:15.919Z,35.02
2022-08-04T17:22:45.533Z,34.90
2022-08-04T17:25:14.927Z,35.34
2022-08-04T17:28:19.081Z,35.83
2022-08-04T17:30:35.770Z,35.33
2022-08-04T17:33:05.424Z,34.87
2022-08-04T17:35:44.837Z,34.45
2022-08-04T17:38:18.609Z,34.70
2022-08-04T17:40:58.810Z,35.09
2022-08-04T17:44:04.678Z,36.15
2022-08-04T17:46:41.569Z,36.43
2022-08-04T17:49:22.380Z,37.19
2022-08-04T17:54:46.163Z,38.46
2022-08-04T17:57:19.967Z,38.70
2022-08-04T17:59:58.106Z,39.10
2022-08-04T18:02:35.087Z,39.18
2022-08-04T18:05:11.240Z,38.76
2022-08-04T18:08:39.003Z,38.69
2022-08-04T18:10:51.722Z,37.34
2022-08-04T18:13:27.388Z,36.97
2022-08-04T18:16:04.071Z,36.68
2022-08-04T18:18:38.442Z,36.51
2022-08-04T18:21:08.034Z,35.74
2022-08-04T18:23:50.397Z,36.13
2022-08-04T18:26:23.597Z,36.06
2022-08-04T18:28:53.694Z,36.26
2022-08-04T18:31:23.000Z,36.26
2022-08-04T18:33:57.100Z,36.30
2022-08-04T18:36:33.659Z,36.01
2022-08-04T18:39:13.480Z,35.99
2022-08-04T18:42:01.353Z,36.25
2022-08-04T18:44:32.917Z,36.27
2022-08-04T18:47:23.464Z,36.62
2022-08-04T18:50:58.643Z,37.14
2022-08-04T18:52:45.845Z,37.59
2022-08-04T18:58:11.626Z,38.16
2022-08-04T19:00:45.503Z,38.45
2022-08-04T19:03:16.529Z,38.62
2022-08-04T19:05:54.915Z,38.71
2022-08-04T19:08:34.463Z,38.92
2022-08-04T19:11:38.518Z,38.95
2022-08-04T19:13:58.886Z,39.00
2022-08-04T19:16:29.938Z,38.87
2022-08-04T19:19:00.511Z,38.76
2022-08-04T19:21:59.321Z,38.83
2022-08-04T19:24:32.538Z,38.43
2022-08-04T19:27:08.429Z,38.54
2022-08-04T19:32:29.936Z,38.88
2022-08-04T19:35:00.450Z,39.04
2022-08-04T19:37:56.679Z,39.57
2022-08-04T19:40:33.630Z,39.77
2022-08-04T19:43:14.448Z,40.23
2022-08-04T19:45:45.892Z,40.11
2022-08-04T19:48:19.395Z,40.01
2022-08-04T19:50:50.167Z,40.57
2022-08-04T19:53:37.107Z,41.23
2022-08-04T19:56:07.775Z,40.90
2022-08-04T19:58:38.677Z,41.06
2022-08-04T20:01:28.652Z,41.32
2022-08-04T20:04:08.839Z,41.68
2022-08-04T20:06:40.810Z,41.95
2022-08-04T20:09:24.978Z,42.14
2022-08-04T20:11:56.799Z,42.49
2022-08-04T20:14:32.612Z,42.20
2022-08-04T20:17:17.969Z,41.82
2022-08-04T20:19:51.250Z,41.97
2022-08-04T20:22:50.469Z,41.96
2022-08-04T20:25:35.559Z,42.00
2022-08-04T20:28:02.622Z,42.37
2022-08-04T20:30:33.467Z,42.75
2022-08-04T20:33:04.257Z,43.22
2022-08-04T20:36:03.246Z,43.42
2022-08-04T20:38:33.125Z,43.95
2022-08-04T20:41:05.199Z,44.35
2022-08-04T20:43:35.057Z,44.13
2022-08-04T20:46:18.635Z,44.52
2022-08-04T20:48:59.944Z,44.77
2022-08-04T20:51:33.776Z,44.75
2022-08-04T20:54:16.506Z,45.15
2022-08-04T20:56:51.003Z,45.44
2022-08-04T20:59:21.151Z,46.15
2022-08-04T21:01:53.840Z,45.95
2022-08-04T21:04:33.123Z,46.21
2022-08-04T21:07:05.973Z,45.98
2022-08-04T21:09:37.475Z,46.76
2022-08-04T21:12:28.586Z,46.51
2022-08-04T21:15:13.155Z,46.74
2022-08-04T21:17:58.589Z,47.04
2022-08-04T21:20:36.144Z,47.00
2022-08-04T21:23:09.202Z,47.22
2022-08-04T21:25:42.873Z,47.67
2022-08-04T21:28:20.481Z,48.00
2022-08-04T21:30:54.126Z,48.71
2022-08-04T21:33:49.025Z,48.89
2022-08-04T21:36:19.576Z,48.68
2022-08-04T21:38:51.190Z,48.97
2022-08-04T21:41:25.177Z,49.10
2022-08-04T21:43:58.628Z,48.84
2022-08-04T21:46:31.481Z,49.62
2022-08-04T21:49:01.165Z,49.35
2022-08-04T21:51:58.772Z,49.31
2022-08-04T21:54:25.052Z,49.76
2022-08-04T21:56:54.446Z,49.78
2022-08-04T21:59:30.637Z,50.17
2022-08-04T22:02:02.221Z,50.33
2022-08-04T22:04:32.015Z,50.04
2022-08-04T22:07:03.114Z,50.52
2022-08-04T22:09:40.931Z,50.63
2022-08-04T22:12:12.410Z,50.48
2022-08-04T22:14:43.350Z,50.50
2022-08-04T22:17:19.981Z,50.97
2022-08-04T22:19:56.158Z,51.75
2022-08-04T22:28:03.768Z,51.52
2022-08-04T22:30:37.562Z,50.99
2022-08-04T22:33:09.893Z,51.39
2022-08-04T22:35:48.770Z,51.07
2022-08-04T22:38:42.043Z,51.34
2022-08-04T22:41:18.038Z,51.53
2022-08-04T22:43:54.906Z,51.74
2022-08-04T22:46:30.250Z,51.84
2022-08-04T22:48:59.671Z,51.79
2022-08-04T22:51:39.393Z,52.14
2022-08-04T22:54:19.213Z,52.11
2022-08-04T22:56:48.846Z,52.38
2022-08-04T22:59:22.184Z,52.42
2022-08-04T23:02:00.820Z,53.11
2022-08-04T23:04:37.165Z,53.45
2022-08-04T23:07:09.751Z,53.22
2022-08-04T23:09:50.311Z,53.55
2022-08-04T23:12:25.089Z,53.67
2022-08-04T23:14:56.646Z,53.95
2022-08-04T23:17:34.021Z,54.64
2022-08-04T23:20:23.559Z,54.94
2022-08-04T23:23:14.625Z,54.42
2022-08-04T23:26:07.183Z,54.84
2022-08-04T23:28:36.254Z,55.18
2022-08-04T23:31:05.917Z,55.25
2022-08-04T23:33:49.441Z,55.95
2022-08-04T23:36:29.535Z,56.57
2022-08-04T23:39:06.422Z,57.23
2022-08-04T23:41:54.177Z,56.88
2022-08-04T23:44:27.208Z,57.01
2022-08-04T23:47:01.642Z,57.62
2022-08-04T23:49:43.709Z,57.99
2022-08-04T23:52:27.699Z,57.85
2022-08-04T23:55:03.486Z,58.90
2022-08-04T23:58:16.815Z,58.43
